createdAt,value
2023-05-13T00:01:28.932Z,100.00
2023-05-13T00:03:56.233Z,100.00
2023-05-13T00:06:23.619Z,100.00
2023-05-13T00:08:50.956Z,100.00
2023-05-13T00:11:18.268Z,100.00
2023-05-13T00:13:45.640Z,100.00
2023-05-13T00:16:13.186Z,100.00
2023-05-13T00:18:40.715Z,100.00
2023-05-13T00:21:08.092Z,100.00
2023-05-13T00:23:35.379Z,100.00
2023-05-13T00:26:02.629Z,100.00
2023-05-13T00:28:30.380Z,100.00
2023-05-13T00:30:57.604Z,99.23
2023-05-13T00:33:25.537Z,99.63
2023-05-13T00:35:52.779Z,99.75
2023-05-13T00:38:20.175Z,98.48
2023-05-13T00:40:47.759Z,97.91
2023-05-13T00:43:15.010Z,99.63
2023-05-13T00:45:43.067Z,100.00
2023-05-13T00:48:10.893Z,100.00
2023-05-13T00:50:39.103Z,100.00
2023-05-13T00:53:06.485Z,98.86
2023-05-13T00:55:33.993Z,99.46
2023-05-13T00:58:01.427Z,100.00
2023-05-13T01:00:31.104Z,100.00
2023-05-13T01:03:13.500Z,100.00
2023-05-13T01:06:06.751Z,100.00
2023-05-13T01:08:43.382Z,100.00
2023-05-13T01:11:17.387Z,100.00
2023-05-13T01:13:47.647Z,100.00
2023-05-13T01:16:21.641Z,100.00
2023-05-13T01:19:01.967Z,100.00
2023-05-13T01:21:29.616Z,100.00
2023-05-13T01:23:57.483Z,100.00
2023-05-13T01:26:26.944Z,100.00
2023-05-13T01:28:55.384Z,100.00
2023-05-13T01:31:23.458Z,100.00
2023-05-13T01:33:51.458Z,100.00
2023-05-13T01:36:19.159Z,100.00
2023-05-13T01:38:47.269Z,100.00
2023-05-13T01:41:14.506Z,100.00
2023-05-13T01:43:42.354Z,100.00
2023-05-13T01:46:13.368Z,100.00
2023-05-13T01:48:41.022Z,100.00
2023-05-13T01:51:09.184Z,100.00
2023-05-13T01:53:36.728Z,100.00
2023-05-13T01:56:04.198Z,100.00
2023-05-13T01:58:32.096Z,100.00
2023-05-13T02:01:00.763Z,100.00
2023-05-13T02:03:28.338Z,100.00
2023-05-13T02:05:55.932Z,100.00
2023-05-13T02:08:25.487Z,100.00
2023-05-13T02:10:57.330Z,100.00
2023-05-13T02:13:25.484Z,100.00
2023-05-13T02:15:53.847Z,100.00
2023-05-13T02:18:22.392Z,100.00
2023-05-13T02:20:49.765Z,100.00
2023-05-13T02:23:17.746Z,100.00
2023-05-13T02:25:45.112Z,100.00
2023-05-13T02:28:12.470Z,100.00
2023-05-13T02:30:39.891Z,100.00
2023-05-13T02:33:07.589Z,100.00
2023-05-13T02:35:35.307Z,100.00
2023-05-13T02:38:04.416Z,100.00
2023-05-13T02:40:33.411Z,100.00
2023-05-13T02:43:00.629Z,100.00
2023-05-13T02:45:41.941Z,100.00
2023-05-13T02:48:11.208Z,100.00
2023-05-13T02:50:40.427Z,100.00
2023-05-13T02:53:09.151Z,100.00
2023-05-13T02:55:40.114Z,100.00
2023-05-13T02:58:08.986Z,100.00
2023-05-13T03:00:36.413Z,100.00
2023-05-13T03:03:03.892Z,100.00
2023-05-13T03:05:31.585Z,100.00
2023-05-13T03:07:58.968Z,100.00
2023-05-13T03:10:26.678Z,100.00
2023-05-13T03:12:53.973Z,100.00
2023-05-13T03:15:21.924Z,100.00
2023-05-13T03:17:49.356Z,100.00
2023-05-13T03:20:17.328Z,100.00
2023-05-13T03:22:44.815Z,100.00
2023-05-13T03:25:12.797Z,100.00
2023-05-13T03:27:43.868Z,100.00
2023-05-13T03:30:12.111Z,100.00
2023-05-13T03:32:52.121Z,100.00
2023-05-13T03:35:19.446Z,100.00
2023-05-13T03:37:47.632Z,100.00
2023-05-13T03:40:16.630Z,100.00
2023-05-13T03:42:43.943Z,100.00
2023-05-13T03:45:11.746Z,100.00
2023-05-13T03:47:41.455Z,100.00
2023-05-13T03:50:13.822Z,100.00
2023-05-13T03:52:46.276Z,100.00
2023-05-13T03:55:15.217Z,100.00
2023-05-13T03:57:47.260Z,100.00
2023-05-13T04:00:16.971Z,100.00
2023-05-13T04:02:44.262Z,100.00
2023-05-13T04:05:14.106Z,100.00
2023-05-13T04:07:41.985Z,100.00
2023-05-13T04:10:14.503Z,100.00
2023-05-13T04:12:42.751Z,100.00
2023-05-13T04:15:10.636Z,100.00
2023-05-13T04:17:37.971Z,100.00
2023-05-13T04:20:06.018Z,100.00
2023-05-13T04:22:35.253Z,100.00
2023-05-13T04:25:02.510Z,100.00
2023-05-13T04:27:29.710Z,100.00
2023-05-13T04:30:04.213Z,100.00
2023-05-13T04:32:34.011Z,100.00
2023-05-13T04:35:02.005Z,100.00
2023-05-13T04:37:31.167Z,100.00
2023-05-13T04:40:02.463Z,100.00
2023-05-13T04:42:29.948Z,100.00
2023-05-13T04:44:57.442Z,100.00
2023-05-13T04:47:24.770Z,100.00
2023-05-13T04:49:52.238Z,100.00
2023-05-13T04:52:20.144Z,100.00
2023-05-13T04:54:47.436Z,100.00
2023-05-13T04:57:14.680Z,100.00
2023-05-13T04:59:41.999Z,100.00
2023-05-13T05:02:10.727Z,100.00
2023-05-13T05:04:38.574Z,100.00
2023-05-13T05:07:12.325Z,100.00
2023-05-13T05:09:39.588Z,100.00
2023-05-13T05:12:07.694Z,100.00
2023-05-13T05:14:38.212Z,100.00
2023-05-13T05:17:06.788Z,100.00
2023-05-13T05:19:34.270Z,100.00
2023-05-13T05:22:01.804Z,100.00
2023-05-13T05:24:29.147Z,100.00
2023-05-13T05:26:56.962Z,100.00
2023-05-13T05:29:24.428Z,100.00
2023-05-13T05:31:51.811Z,100.00
2023-05-13T05:34:19.194Z,99.02
2023-05-13T05:36:47.148Z,99.10
2023-05-13T05:39:16.575Z,98.99
2023-05-13T05:41:43.923Z,98.34
2023-05-13T05:44:13.443Z,98.72
2023-05-13T05:46:40.968Z,98.50
2023-05-13T05:49:09.255Z,97.52
2023-05-13T05:51:37.313Z,97.18
2023-05-13T05:54:05.680Z,96.89
2023-05-13T05:56:33.067Z,95.42
2023-05-13T05:59:00.461Z,94.41
2023-05-13T06:01:36.526Z,94.92
2023-05-13T06:04:04.690Z,94.18
2023-05-13T06:06:32.627Z,94.67
2023-05-13T06:09:01.821Z,95.07
2023-05-13T06:11:29.216Z,93.86
2023-05-13T06:13:57.631Z,94.15
2023-05-13T06:16:25.031Z,92.50
2023-05-13T06:18:52.802Z,92.53
2023-05-13T06:21:20.577Z,92.60
2023-05-13T06:23:49.849Z,92.52
2023-05-13T06:26:17.160Z,91.37
2023-05-13T06:28:44.469Z,90.48
2023-05-13T06:31:12.082Z,90.75
2023-05-13T06:33:39.461Z,90.40
2023-05-13T06:36:07.266Z,90.24
2023-05-13T06:38:35.311Z,90.46
2023-05-13T06:41:03.205Z,90.64
2023-05-13T06:43:33.818Z,91.32
2023-05-13T06:46:12.534Z,91.45
2023-05-13T06:48:40.312Z,91.19
2023-05-13T06:51:07.677Z,90.45
2023-05-13T06:53:34.985Z,89.63
2023-05-13T06:56:02.285Z,88.26
2023-05-13T06:58:29.655Z,90.04
2023-05-13T07:00:57.047Z,88.56
2023-05-13T07:03:24.662Z,90.21
2023-05-13T07:05:52.167Z,90.83
2023-05-13T07:08:19.777Z,90.47
2023-05-13T07:10:47.098Z,90.99
2023-05-13T07:13:14.617Z,90.08
2023-05-13T07:15:41.956Z,89.42
2023-05-13T07:18:09.475Z,89.42
2023-05-13T07:20:37.735Z,88.38
2023-05-13T07:23:05.044Z,88.40
2023-05-13T07:25:32.342Z,87.66
2023-05-13T07:28:00.020Z,87.93
2023-05-13T07:30:27.650Z,87.25
2023-05-13T07:32:54.933Z,85.66
2023-05-13T07:35:22.580Z,85.79
2023-05-13T07:37:50.341Z,85.63
2023-05-13T07:40:19.676Z,84.82
2023-05-13T07:42:48.719Z,83.38
2023-05-13T07:45:16.375Z,84.78
2023-05-13T07:47:44.696Z,84.70
2023-05-13T07:50:12.582Z,84.92
2023-05-13T07:52:39.986Z,84.58
2023-05-13T07:55:07.891Z,84.33
2023-05-13T07:57:35.179Z,82.83
2023-05-13T08:00:02.882Z,82.63
2023-05-13T08:02:41.889Z,83.60
2023-05-13T08:05:10.067Z,83.36
2023-05-13T08:07:37.423Z,83.57
2023-05-13T08:10:05.168Z,82.72
2023-05-13T08:12:32.402Z,84.27
2023-05-13T08:15:01.135Z,85.25
2023-05-13T08:17:28.817Z,85.61
2023-05-13T08:19:56.586Z,86.40
2023-05-13T08:22:24.254Z,86.28
2023-05-13T08:24:51.693Z,85.37
2023-05-13T08:27:18.972Z,85.41
2023-05-13T08:29:46.205Z,85.25
2023-05-13T08:32:13.564Z,85.30
2023-05-13T08:34:41.119Z,84.93
2023-05-13T08:37:08.455Z,84.14
2023-05-13T08:39:36.112Z,82.91
2023-05-13T08:42:04.391Z,82.35
2023-05-13T08:44:32.934Z,84.15
2023-05-13T08:47:18.758Z,83.71
2023-05-13T08:49:46.722Z,83.43
2023-05-13T08:52:13.887Z,82.92
2023-05-13T08:54:41.565Z,84.57
2023-05-13T08:57:09.030Z,83.16
2023-05-13T08:59:36.202Z,83.62
2023-05-13T09:02:05.159Z,82.70
2023-05-13T09:04:34.488Z,84.83
2023-05-13T09:07:02.671Z,85.42
2023-05-13T09:09:30.039Z,85.70
2023-05-13T09:11:57.279Z,84.88
2023-05-13T09:14:29.765Z,84.33
2023-05-13T09:16:57.473Z,82.53
2023-05-13T09:19:26.016Z,81.99
2023-05-13T09:21:53.661Z,83.18
2023-05-13T09:24:23.930Z,82.28
2023-05-13T09:26:51.771Z,83.09
2023-05-13T09:29:29.096Z,82.99
2023-05-13T09:31:59.033Z,82.39
2023-05-13T09:34:34.236Z,82.09
2023-05-13T09:37:07.160Z,81.74
2023-05-13T09:39:40.043Z,82.11
2023-05-13T09:42:18.880Z,80.83
2023-05-13T09:44:46.710Z,83.21
2023-05-13T09:47:14.761Z,83.69
2023-05-13T09:49:43.523Z,82.57
2023-05-13T09:52:12.236Z,81.66
2023-05-13T09:54:39.781Z,80.36
2023-05-13T09:57:07.031Z,80.33
2023-05-13T09:59:34.895Z,80.69
2023-05-13T10:02:06.878Z,78.61
2023-05-13T10:04:34.538Z,78.04
2023-05-13T10:07:03.514Z,77.96
2023-05-13T10:09:35.468Z,78.07
2023-05-13T10:12:03.863Z,77.51
2023-05-13T10:14:31.805Z,76.51
2023-05-13T10:17:14.366Z,76.26
2023-05-13T10:24:12.569Z,80.48
2023-05-13T10:26:41.617Z,79.29
2023-05-13T10:29:10.728Z,78.81
2023-05-13T10:31:38.409Z,78.08
2023-05-13T10:34:05.682Z,76.85
2023-05-13T10:37:11.380Z,76.07
2023-05-13T10:39:43.229Z,76.79
2023-05-13T10:42:16.520Z,76.29
2023-05-13T10:44:43.886Z,75.73
2023-05-13T10:47:11.574Z,75.02
2023-05-13T10:49:39.654Z,75.04
2023-05-13T10:52:08.614Z,73.40
2023-05-13T10:54:40.597Z,73.55
2023-05-13T10:57:08.703Z,73.41
2023-05-13T10:59:37.286Z,75.60
2023-05-13T11:02:24.310Z,76.15
2023-05-13T11:05:01.291Z,74.73
2023-05-13T11:07:29.017Z,73.09
2023-05-13T11:09:56.277Z,72.46
2023-05-13T11:12:23.531Z,70.83
2023-05-13T11:14:51.133Z,70.49
2023-05-13T11:17:19.992Z,70.80
2023-05-13T11:19:48.733Z,69.50
2023-05-13T11:22:20.156Z,68.69
2023-05-13T11:25:08.616Z,68.67
2023-05-13T11:27:41.247Z,69.69
2023-05-13T11:30:22.383Z,69.43
2023-05-13T11:32:56.943Z,69.97
2023-05-13T11:35:29.207Z,69.54
2023-05-13T11:37:59.147Z,70.72
2023-05-13T11:40:28.538Z,71.17
2023-05-13T11:42:56.139Z,69.84
2023-05-13T11:45:25.011Z,68.66
2023-05-13T11:47:53.757Z,68.26
2023-05-13T11:50:32.514Z,68.16
2023-05-13T11:53:01.310Z,68.84
2023-05-13T11:55:35.156Z,68.01
2023-05-13T11:58:03.237Z,67.76
2023-05-13T12:00:34.907Z,66.75
2023-05-13T12:03:10.257Z,66.59
2023-05-13T12:05:41.386Z,65.66
2023-05-13T12:08:12.678Z,64.77
2023-05-13T12:10:43.692Z,64.48
2023-05-13T12:13:11.182Z,64.76
2023-05-13T12:15:38.735Z,64.67
2023-05-13T12:18:06.806Z,65.12
2023-05-13T12:20:34.130Z,63.32
2023-05-13T12:23:01.987Z,63.63
2023-05-13T12:25:35.820Z,61.76
2023-05-13T12:28:18.932Z,63.31
2023-05-13T12:31:15.774Z,63.12
2023-05-13T12:33:46.751Z,63.13
2023-05-13T12:36:18.118Z,62.22
2023-05-13T12:39:01.705Z,62.04
2023-05-13T12:41:33.757Z,59.31
2023-05-13T12:47:10.321Z,59.66
2023-05-13T12:49:54.630Z,59.26
2023-05-13T12:52:22.273Z,58.83
2023-05-13T12:54:49.584Z,58.24
2023-05-13T12:57:17.769Z,57.00
2023-05-13T12:59:47.999Z,55.44
2023-05-13T13:02:15.139Z,53.50
2023-05-13T13:04:42.463Z,53.69
2023-05-13T13:07:12.720Z,52.28
2023-05-13T13:09:40.209Z,52.54
2023-05-13T13:12:07.883Z,52.62
2023-05-13T13:14:35.380Z,50.81
2023-05-13T13:17:02.997Z,50.31
2023-05-13T13:19:31.181Z,48.87
2023-05-13T13:21:58.534Z,48.17
2023-05-13T13:24:25.841Z,47.82
2023-05-13T13:26:54.498Z,48.32
2023-05-13T13:29:23.067Z,49.59
2023-05-13T13:31:52.050Z,49.57
2023-05-13T13:34:19.362Z,50.36
2023-05-13T13:36:46.921Z,47.84
2023-05-13T13:39:14.192Z,46.52
2023-05-13T13:41:41.577Z,45.52
2023-05-13T13:44:08.977Z,45.06
2023-05-13T13:46:36.337Z,43.79
2023-05-13T13:49:10.184Z,44.77
2023-05-13T13:51:43.708Z,44.71
2023-05-13T13:54:10.866Z,44.64
2023-05-13T13:56:38.836Z,44.12
2023-05-13T13:59:06.081Z,45.88
2023-05-13T14:01:33.305Z,45.91
2023-05-13T14:04:14.770Z,45.87
2023-05-13T14:06:42.418Z,46.41
2023-05-13T14:09:10.624Z,45.87
2023-05-13T14:11:38.148Z,45.57
2023-05-13T14:14:05.831Z,44.59
2023-05-13T14:16:33.287Z,44.77
2023-05-13T14:19:00.680Z,44.17
2023-05-13T14:21:27.926Z,42.91
2023-05-13T14:23:55.311Z,42.81
2023-05-13T14:26:22.690Z,42.29
2023-05-13T14:28:50.092Z,41.38
2023-05-13T14:31:17.525Z,40.82
2023-05-13T14:33:44.992Z,40.27
2023-05-13T14:36:16.124Z,40.45
2023-05-13T14:38:43.733Z,40.76
2023-05-13T14:41:11.173Z,40.28
2023-05-13T14:43:38.395Z,40.67
2023-05-13T14:46:05.721Z,41.35
2023-05-13T14:48:32.996Z,42.20
2023-05-13T14:51:00.338Z,42.69
2023-05-13T14:53:28.714Z,43.63
2023-05-13T14:55:56.056Z,43.17
2023-05-13T14:58:23.744Z,43.45
2023-05-13T15:00:51.008Z,42.41
2023-05-13T15:03:18.435Z,42.27
2023-05-13T15:05:46.932Z,42.51
2023-05-13T15:08:17.491Z,41.95
2023-05-13T15:10:45.699Z,41.04
2023-05-13T15:13:13.223Z,39.52
2023-05-13T15:15:40.489Z,39.49
2023-05-13T15:18:07.888Z,40.27
2023-05-13T15:20:35.189Z,40.78
2023-05-13T15:23:02.464Z,40.88
2023-05-13T15:25:30.119Z,41.73
2023-05-13T15:27:57.365Z,42.62
2023-05-13T15:30:24.737Z,42.30
2023-05-13T15:32:52.059Z,42.09
2023-05-13T15:35:19.651Z,42.44
2023-05-13T15:37:47.050Z,43.50
2023-05-13T15:40:14.718Z,43.57
2023-05-13T15:42:42.072Z,43.27
2023-05-13T15:45:09.466Z,44.33
2023-05-13T15:47:37.297Z,45.23
2023-05-13T15:50:05.334Z,46.24
2023-05-13T15:52:32.613Z,45.43
2023-05-13T15:54:59.843Z,44.83
2023-05-13T15:57:27.085Z,44.83
2023-05-13T15:59:54.368Z,45.62
2023-05-13T16:02:23.174Z,46.27
2023-05-13T16:04:50.426Z,45.05
2023-05-13T16:07:17.794Z,46.15
2023-05-13T16:09:45.666Z,46.20
2023-05-13T16:12:13.050Z,46.59
2023-05-13T16:14:40.540Z,47.29
2023-05-13T16:17:07.760Z,47.90
2023-05-13T16:19:36.113Z,47.74
2023-05-13T16:22:29.143Z,47.62
2023-05-13T16:25:02.372Z,48.08
2023-05-13T16:27:30.162Z,48.74
2023-05-13T16:29:58.476Z,49.05
2023-05-13T16:32:28.149Z,49.04
2023-05-13T16:34:55.832Z,49.75
2023-05-13T16:37:23.164Z,50.42
2023-05-13T16:39:50.590Z,51.16
2023-05-13T16:42:19.536Z,47.31
2023-05-13T16:44:47.403Z,47.39
2023-05-13T16:47:14.719Z,47.73
2023-05-13T16:49:42.678Z,48.40
2023-05-13T16:52:10.131Z,48.79
2023-05-13T16:54:37.376Z,48.87
2023-05-13T16:57:08.340Z,49.77
2023-05-13T16:59:36.866Z,49.71
2023-05-13T17:02:04.363Z,50.72
2023-05-13T17:04:31.817Z,51.16
2023-05-13T17:06:59.494Z,51.08
2023-05-13T17:09:27.209Z,52.27
2023-05-13T17:11:54.723Z,53.45
2023-05-13T17:14:22.403Z,53.79
2023-05-13T17:16:49.719Z,54.51
2023-05-13T17:19:17.394Z,54.76
2023-05-13T17:21:44.824Z,54.51
2023-05-13T17:24:12.136Z,54.59
2023-05-13T17:26:39.522Z,55.08
2023-05-13T17:29:06.748Z,53.99
2023-05-13T17:31:34.602Z,54.36
2023-05-13T17:34:02.345Z,54.12
2023-05-13T17:36:29.694Z,54.19
2023-05-13T17:38:56.942Z,54.53
2023-05-13T17:41:24.602Z,54.33
2023-05-13T17:43:52.206Z,54.24
2023-05-13T17:46:19.564Z,54.07
2023-05-13T17:48:49.129Z,54.63
2023-05-13T17:51:16.788Z,54.91
2023-05-13T17:53:44.355Z,55.69
2023-05-13T17:56:11.666Z,55.55
2023-05-13T17:58:39.588Z,55.69
2023-05-13T18:01:07.110Z,56.96
2023-05-13T18:03:35.275Z,57.79
2023-05-13T18:06:02.727Z,58.54
2023-05-13T18:08:31.181Z,57.39
2023-05-13T18:10:58.413Z,57.77
2023-05-13T18:13:25.657Z,57.18
2023-05-13T18:15:53.215Z,56.75
2023-05-13T18:18:20.510Z,57.24
2023-05-13T18:20:47.777Z,57.18
2023-05-13T18:23:15.240Z,57.13
2023-05-13T18:25:52.431Z,58.47
2023-05-13T18:28:23.680Z,58.35
2023-05-13T18:30:50.938Z,58.55
2023-05-13T18:33:20.132Z,58.50
2023-05-13T18:35:47.756Z,57.72
2023-05-13T18:38:15.124Z,57.08
2023-05-13T18:40:42.329Z,56.49
2023-05-13T18:43:09.596Z,56.62
2023-05-13T18:45:37.126Z,57.29
2023-05-13T18:48:04.760Z,57.15
2023-05-13T18:50:32.201Z,57.80
2023-05-13T18:52:59.623Z,57.89
2023-05-13T18:55:27.068Z,57.49
2023-05-13T18:57:54.466Z,57.34
2023-05-13T19:00:21.818Z,57.33
2023-05-13T19:02:49.529Z,57.06
2023-05-13T19:05:18.440Z,56.36
2023-05-13T19:07:47.721Z,56.21
2023-05-13T19:10:15.824Z,55.72
2023-05-13T19:12:43.199Z,55.49
2023-05-13T19:15:11.685Z,56.14
2023-05-13T19:17:40.441Z,55.49
2023-05-13T19:20:08.610Z,55.33
2023-05-13T19:22:35.953Z,55.82
2023-05-13T19:25:04.203Z,55.48
2023-05-13T19:27:31.836Z,55.82
2023-05-13T19:29:59.213Z,55.83
2023-05-13T19:32:26.597Z,56.19
2023-05-13T19:34:53.992Z,55.44
2023-05-13T19:37:21.650Z,56.15
2023-05-13T19:39:48.892Z,57.14
2023-05-13T19:42:17.046Z,57.56
2023-05-13T19:44:44.290Z,58.37
2023-05-13T19:47:11.647Z,57.53
2023-05-13T19:49:38.949Z,58.25
2023-05-13T19:52:07.061Z,58.00
2023-05-13T19:54:34.293Z,58.83
2023-05-13T19:57:01.617Z,59.09
2023-05-13T19:59:29.133Z,60.13
2023-05-13T20:01:56.635Z,59.61
2023-05-13T20:04:24.029Z,60.42
2023-05-13T20:06:51.274Z,61.48
2023-05-13T20:09:18.675Z,62.18
2023-05-13T20:11:45.929Z,62.83
2023-05-13T20:14:13.705Z,64.13
2023-05-13T20:16:41.552Z,67.21
2023-05-13T20:19:10.015Z,67.09
2023-05-13T20:21:37.423Z,67.88
2023-05-13T20:24:04.831Z,70.69
2023-05-13T20:26:34.705Z,73.13
2023-05-13T20:29:02.418Z,72.24
2023-05-13T20:31:30.547Z,72.41
2023-05-13T20:33:58.520Z,73.00
2023-05-13T20:36:26.948Z,73.58
2023-05-13T20:38:54.216Z,73.72
2023-05-13T20:41:21.798Z,73.64
2023-05-13T20:43:49.106Z,72.43
2023-05-13T20:46:17.316Z,72.59
2023-05-13T20:48:44.621Z,71.54
2023-05-13T20:51:12.317Z,72.45
2023-05-13T20:53:40.293Z,72.50
2023-05-13T20:56:09.873Z,70.96
2023-05-13T20:58:37.181Z,71.67
2023-05-13T21:01:04.633Z,71.53
2023-05-13T21:03:33.078Z,71.19
2023-05-13T21:06:01.571Z,72.03
2023-05-13T21:08:28.995Z,73.29
2023-05-13T21:10:56.843Z,74.00
2023-05-13T21:13:25.923Z,73.53
2023-05-13T21:15:53.385Z,73.23
2023-05-13T21:18:21.719Z,72.42
2023-05-13T21:20:48.989Z,71.83
2023-05-13T21:23:16.337Z,72.30
2023-05-13T21:25:43.742Z,72.10
2023-05-13T21:28:11.102Z,72.77
2023-05-13T21:30:38.376Z,72.40
2023-05-13T21:33:05.913Z,73.27
2023-05-13T21:35:33.192Z,72.51
2023-05-13T21:38:10.920Z,72.37
2023-05-13T21:40:39.543Z,72.86
2023-05-13T21:43:06.785Z,73.24
2023-05-13T21:45:34.057Z,72.19
2023-05-13T21:48:01.400Z,71.21
2023-05-13T21:50:28.850Z,71.13
2023-05-13T21:52:56.174Z,72.38
2023-05-13T21:55:23.443Z,71.69
2023-05-13T21:57:50.780Z,71.48
2023-05-13T22:00:21.611Z,71.36
2023-05-13T22:02:50.952Z,71.05
2023-05-13T22:05:18.612Z,71.54
2023-05-13T22:07:46.359Z,71.20
2023-05-13T22:10:13.886Z,72.07
2023-05-13T22:12:41.222Z,73.53
2023-05-13T22:15:09.305Z,74.05
2023-05-13T22:17:36.935Z,74.23
2023-05-13T22:20:05.356Z,73.86
2023-05-13T22:22:32.672Z,74.21
2023-05-13T22:25:00.156Z,74.40
2023-05-13T22:27:27.423Z,73.93
2023-05-13T22:29:54.740Z,74.37
2023-05-13T22:32:23.141Z,75.11
2023-05-13T22:34:50.663Z,75.55
2023-05-13T22:37:17.989Z,77.27
2023-05-13T22:39:45.230Z,77.11
2023-05-13T22:42:12.668Z,77.14
2023-05-13T22:44:40.007Z,78.52
2023-05-13T22:47:08.457Z,77.81
2023-05-13T22:49:35.872Z,79.56
2023-05-13T22:52:03.282Z,79.94
2023-05-13T22:54:31.128Z,82.01
2023-05-13T22:56:59.212Z,82.58
2023-05-13T22:59:27.620Z,83.55
2023-05-13T23:01:54.906Z,84.38
2023-05-13T23:04:22.378Z,84.20
2023-05-13T23:06:49.610Z,84.41
2023-05-13T23:09:16.998Z,84.68
2023-05-13T23:11:44.224Z,85.25
2023-05-13T23:14:11.509Z,84.43
2023-05-13T23:16:38.842Z,84.19
2023-05-13T23:19:06.277Z,85.55
2023-05-13T23:21:33.682Z,84.51
2023-05-13T23:24:00.932Z,83.88
2023-05-13T23:26:28.387Z,84.34
2023-05-13T23:28:55.731Z,84.81
2023-05-13T23:31:23.828Z,84.97
2023-05-13T23:33:51.225Z,84.82
2023-05-13T23:36:18.709Z,85.46
2023-05-13T23:38:46.213Z,85.76
2023-05-13T23:41:14.201Z,85.56
2023-05-13T23:43:41.923Z,86.00
2023-05-13T23:46:09.587Z,84.11
2023-05-13T23:48:36.830Z,84.50
2023-05-13T23:51:04.338Z,84.80
2023-05-13T23:53:31.669Z,85.77
2023-05-13T23:55:59.002Z,86.22
2023-05-13T23:58:26.243Z,85.51
